sensor_id;sensor_type;location;lat;lon;timestamp;P1;durP1;ratioP1;P2;durP2;ratioP2
30697;SDS011;17448;47.200;10.902;2024-02-15T00:00:13;8.85;;;4.97;;
30697;SDS011;17448;47.200;10.902;2024-02-15T00:02:40;12.80;;;5.43;;
30697;SDS011;17448;47.200;10.902;2024-02-15T00:05:10;8.38;;;4.55;;
30697;SDS011;17448;47.200;10.902;2024-02-15T00:07:36;9.95;;;4.53;;
30697;SDS011;17448;47.200;10.902;2024-02-15T00:10:02;9.00;;;4.63;;
30697;SDS011;17448;47.200;10.902;2024-02-15T00:12:32;10.10;;;4.53;;
30697;SDS011;17448;47.200;10.902;2024-02-15T00:14:58;8.88;;;4.10;;
30697;SDS011;17448;47.200;10.902;2024-02-15T00:17:24;6.72;;;3.70;;
30697;SDS011;17448;47.200;10.902;2024-02-15T00:19:52;8.70;;;4.45;;
30697;SDS011;17448;47.200;10.902;2024-02-15T00:22:18;8.68;;;4.40;;
30697;SDS011;17448;47.200;10.902;2024-02-15T00:24:46;7.00;;;3.85;;
30697;SDS011;17448;47.200;10.902;2024-02-15T00:27:16;7.28;;;4.13;;
30697;SDS011;17448;47.200;10.902;2024-02-15T00:29:43;8.73;;;3.95;;
30697;SDS011;17448;47.200;10.902;2024-02-15T00:32:09;7.85;;;4.30;;
30697;SDS011;17448;47.200;10.902;2024-02-15T00:34:36;7.47;;;4.20;;
30697;SDS011;17448;47.200;10.902;2024-02-15T00:37:06;6.75;;;4.05;;
30697;SDS011;17448;47.200;10.902;2024-02-15T00:39:33;9.20;;;4.28;;
30697;SDS011;17448;47.200;10.902;2024-02-15T00:41:59;8.30;;;4.22;;
30697;SDS011;17448;47.200;10.902;2024-02-15T00:44:26;5.05;;;3.17;;
30697;SDS011;17448;47.200;10.902;2024-02-15T00:46:52;4.82;;;3.72;;
30697;SDS011;17448;47.200;10.902;2024-02-15T00:49:18;7.90;;;3.50;;
30697;SDS011;17448;47.200;10.902;2024-02-15T00:51:48;7.45;;;3.95;;
30697;SDS011;17448;47.200;10.902;2024-02-15T00:54:14;7.22;;;3.58;;
30697;SDS011;17448;47.200;10.902;2024-02-15T00:56:41;6.63;;;3.85;;
30697;SDS011;17448;47.200;10.902;2024-02-15T00:59:08;8.30;;;3.63;;
30697;SDS011;17448;47.200;10.902;2024-02-15T01:01:34;7.32;;;3.83;;
30697;SDS011;17448;47.200;10.902;2024-02-15T01:04:04;5.50;;;3.20;;
30697;SDS011;17448;47.200;10.902;2024-02-15T01:06:30;5.32;;;3.50;;
30697;SDS011;17448;47.200;10.902;2024-02-15T01:08:57;5.60;;;3.50;;
30697;SDS011;17448;47.200;10.902;2024-02-15T01:11:26;7.03;;;3.60;;
30697;SDS011;17448;47.200;10.902;2024-02-15T01:13:53;10.63;;;3.60;;
30697;SDS011;17448;47.200;10.902;2024-02-15T01:16:20;9.98;;;3.83;;
30697;SDS011;17448;47.200;10.902;2024-02-15T01:18:50;6.80;;;3.63;;
30697;SDS011;17448;47.200;10.902;2024-02-15T01:21:16;6.80;;;3.88;;
30697;SDS011;17448;47.200;10.902;2024-02-15T01:23:42;9.50;;;4.50;;
30697;SDS011;17448;47.200;10.902;2024-02-15T01:26:09;8.45;;;4.32;;
30697;SDS011;17448;47.200;10.902;2024-02-15T01:28:38;7.80;;;4.50;;
30697;SDS011;17448;47.200;10.902;2024-02-15T01:31:04;7.88;;;4.43;;
30697;SDS011;17448;47.200;10.902;2024-02-15T01:33:32;9.07;;;4.07;;
30697;SDS011;17448;47.200;10.902;2024-02-15T01:35:58;5.53;;;3.58;;
30697;SDS011;17448;47.200;10.902;2024-02-15T01:38:24;5.85;;;3.72;;
30697;SDS011;17448;47.200;10.902;2024-02-15T01:40:51;8.82;;;4.15;;
30697;SDS011;17448;47.200;10.902;2024-02-15T01:43:17;8.45;;;3.53;;
30697;SDS011;17448;47.200;10.902;2024-02-15T01:45:43;6.38;;;3.30;;
30697;SDS011;17448;47.200;10.902;2024-02-15T01:48:12;5.38;;;3.40;;
30697;SDS011;17448;47.200;10.902;2024-02-15T01:50:39;6.63;;;3.88;;
30697;SDS011;17448;47.200;10.902;2024-02-15T01:53:07;4.20;;;2.85;;
30697;SDS011;17448;47.200;10.902;2024-02-15T01:55:33;7.13;;;3.70;;
30697;SDS011;17448;47.200;10.902;2024-02-15T01:58:01;5.47;;;3.40;;
30697;SDS011;17448;47.200;10.902;2024-02-15T02:00:27;6.93;;;3.33;;
30697;SDS011;17448;47.200;10.902;2024-02-15T02:02:53;6.22;;;3.50;;
30697;SDS011;17448;47.200;10.902;2024-02-15T02:05:25;4.22;;;2.90;;
30697;SDS011;17448;47.200;10.902;2024-02-15T02:07:53;6.25;;;3.47;;
30697;SDS011;17448;47.200;10.902;2024-02-15T02:10:20;6.85;;;3.35;;
30697;SDS011;17448;47.200;10.902;2024-02-15T02:12:46;6.13;;;3.50;;
30697;SDS011;17448;47.200;10.902;2024-02-15T02:15:13;4.78;;;3.33;;
30697;SDS011;17448;47.200;10.902;2024-02-15T02:17:39;11.57;;;3.50;;
30697;SDS011;17448;47.200;10.902;2024-02-15T02:20:06;6.70;;;3.83;;
30697;SDS011;17448;47.200;10.902;2024-02-15T02:22:36;4.65;;;2.97;;
30697;SDS011;17448;47.200;10.902;2024-02-15T02:25:04;6.15;;;3.47;;
30697;SDS011;17448;47.200;10.902;2024-02-15T02:27:34;8.20;;;4.43;;
30697;SDS011;17448;47.200;10.902;2024-02-15T02:30:03;8.05;;;4.30;;
30697;SDS011;17448;47.200;10.902;2024-02-15T02:32:34;7.00;;;3.97;;
30697;SDS011;17448;47.200;10.902;2024-02-15T02:35:01;10.68;;;4.10;;
30697;SDS011;17448;47.200;10.902;2024-02-15T02:37:28;8.48;;;3.60;;
30697;SDS011;17448;47.200;10.902;2024-02-15T02:39:55;7.07;;;3.92;;
30697;SDS011;17448;47.200;10.902;2024-02-15T02:42:21;11.30;;;3.97;;
30697;SDS011;17448;47.200;10.902;2024-02-15T02:44:47;7.32;;;3.70;;
30697;SDS011;17448;47.200;10.902;2024-02-15T02:47:14;4.15;;;3.33;;
30697;SDS011;17448;47.200;10.902;2024-02-15T02:49:40;6.75;;;3.13;;
30697;SDS011;17448;47.200;10.902;2024-02-15T02:52:07;5.05;;;3.13;;
30697;SDS011;17448;47.200;10.902;2024-02-15T02:54:33;6.75;;;3.10;;
30697;SDS011;17448;47.200;10.902;2024-02-15T02:57:00;7.32;;;3.03;;
30697;SDS011;17448;47.200;10.902;2024-02-15T02:59:26;5.30;;;3.00;;
30697;SDS011;17448;47.200;10.902;2024-02-15T03:01:52;4.05;;;2.75;;
30697;SDS011;17448;47.200;10.902;2024-02-15T03:04:21;4.05;;;2.45;;
30697;SDS011;17448;47.200;10.902;2024-02-15T03:06:47;3.60;;;2.33;;
30697;SDS011;17448;47.200;10.902;2024-02-15T03:09:14;3.33;;;2.15;;
30697;SDS011;17448;47.200;10.902;2024-02-15T03:11:40;5.05;;;2.58;;
30697;SDS011;17448;47.200;10.902;2024-02-15T03:14:06;3.58;;;2.20;;
30697;SDS011;17448;47.200;10.902;2024-02-15T03:16:32;4.18;;;2.17;;
30697;SDS011;17448;47.200;10.902;2024-02-15T03:18:59;4.32;;;2.53;;
30697;SDS011;17448;47.200;10.902;2024-02-15T03:21:29;3.10;;;2.30;;
30697;SDS011;17448;47.200;10.902;2024-02-15T03:23:56;5.40;;;2.35;;
30697;SDS011;17448;47.200;10.902;2024-02-15T03:26:29;3.75;;;2.28;;
30697;SDS011;17448;47.200;10.902;2024-02-15T03:29:03;4.57;;;2.25;;
30697;SDS011;17448;47.200;10.902;2024-02-15T03:31:30;4.75;;;2.30;;
30697;SDS011;17448;47.200;10.902;2024-02-15T03:33:57;4.28;;;2.53;;
30697;SDS011;17448;47.200;10.902;2024-02-15T03:36:24;4.22;;;2.38;;
30697;SDS011;17448;47.200;10.902;2024-02-15T03:38:50;5.00;;;2.70;;
30697;SDS011;17448;47.200;10.902;2024-02-15T03:41:19;5.07;;;2.70;;
30697;SDS011;17448;47.200;10.902;2024-02-15T03:43:45;2.28;;;1.73;;
30697;SDS011;17448;47.200;10.902;2024-02-15T03:46:12;3.17;;;1.98;;
30697;SDS011;17448;47.200;10.902;2024-02-15T03:48:41;2.80;;;2.10;;
30697;SDS011;17448;47.200;10.902;2024-02-15T03:51:15;3.43;;;2.00;;
30697;SDS011;17448;47.200;10.902;2024-02-15T03:53:43;5.70;;;2.08;;
30697;SDS011;17448;47.200;10.902;2024-02-15T03:56:10;2.85;;;2.05;;
30697;SDS011;17448;47.200;10.902;2024-02-15T03:58:37;3.45;;;1.88;;
30697;SDS011;17448;47.200;10.902;2024-02-15T04:01:03;2.35;;;1.70;;
30697;SDS011;17448;47.200;10.902;2024-02-15T04:03:32;6.07;;;2.22;;
30697;SDS011;17448;47.200;10.902;2024-02-15T04:05:59;5.55;;;1.85;;
30697;SDS011;17448;47.200;10.902;2024-02-15T04:08:25;4.28;;;2.00;;
30697;SDS011;17448;47.200;10.902;2024-02-15T04:10:52;2.80;;;1.90;;
30697;SDS011;17448;47.200;10.902;2024-02-15T04:13:18;2.20;;;1.75;;
30697;SDS011;17448;47.200;10.902;2024-02-15T04:15:45;2.78;;;1.52;;
30697;SDS011;17448;47.200;10.902;2024-02-15T04:18:12;4.25;;;1.80;;
30697;SDS011;17448;47.200;10.902;2024-02-15T04:20:39;3.83;;;1.73;;
30697;SDS011;17448;47.200;10.902;2024-02-15T04:23:11;3.97;;;1.52;;
30697;SDS011;17448;47.200;10.902;2024-02-15T04:25:37;6.03;;;1.70;;
30697;SDS011;17448;47.200;10.902;2024-02-15T04:28:06;1.83;;;1.60;;
30697;SDS011;17448;47.200;10.902;2024-02-15T04:30:34;1.95;;;1.35;;
30697;SDS011;17448;47.200;10.902;2024-02-15T04:33:04;2.75;;;1.85;;
30697;SDS011;17448;47.200;10.902;2024-02-15T04:35:30;3.83;;;1.70;;
30697;SDS011;17448;47.200;10.902;2024-02-15T04:37:57;3.30;;;1.60;;
30697;SDS011;17448;47.200;10.902;2024-02-15T04:40:23;1.70;;;1.40;;
30697;SDS011;17448;47.200;10.902;2024-02-15T04:42:49;1.50;;;1.40;;
30697;SDS011;17448;47.200;10.902;2024-02-15T04:45:15;2.10;;;1.60;;
30697;SDS011;17448;47.200;10.902;2024-02-15T04:47:41;2.22;;;1.50;;
30697;SDS011;17448;47.200;10.902;2024-02-15T04:50:10;3.72;;;1.38;;
30697;SDS011;17448;47.200;10.902;2024-02-15T04:52:36;3.22;;;1.85;;
30697;SDS011;17448;47.200;10.902;2024-02-15T04:55:04;3.80;;;1.55;;
30697;SDS011;17448;47.200;10.902;2024-02-15T04:57:30;2.97;;;1.73;;
30697;SDS011;17448;47.200;10.902;2024-02-15T04:59:59;1.80;;;1.30;;
30697;SDS011;17448;47.200;10.902;2024-02-15T05:02:25;6.20;;;1.55;;
30697;SDS011;17448;47.200;10.902;2024-02-15T05:04:52;2.15;;;1.83;;
30697;SDS011;17448;47.200;10.902;2024-02-15T05:07:21;3.15;;;1.55;;
30697;SDS011;17448;47.200;10.902;2024-02-15T05:09:48;3.63;;;2.08;;
30697;SDS011;17448;47.200;10.902;2024-02-15T05:12:21;3.35;;;1.77;;
30697;SDS011;17448;47.200;10.902;2024-02-15T05:14:48;6.35;;;2.03;;
30697;SDS011;17448;47.200;10.902;2024-02-15T05:17:16;3.28;;;2.15;;
30697;SDS011;17448;47.200;10.902;2024-02-15T05:19:42;5.45;;;2.20;;
30697;SDS011;17448;47.200;10.902;2024-02-15T05:22:08;5.55;;;3.00;;
30697;SDS011;17448;47.200;10.902;2024-02-15T05:24:36;6.97;;;2.38;;
30697;SDS011;17448;47.200;10.902;2024-02-15T05:27:05;3.80;;;2.78;;
30697;SDS011;17448;47.200;10.902;2024-02-15T05:29:32;5.20;;;2.85;;
30697;SDS011;17448;47.200;10.902;2024-02-15T05:32:00;7.20;;;2.90;;
30697;SDS011;17448;47.200;10.902;2024-02-15T05:34:26;5.60;;;2.80;;
30697;SDS011;17448;47.200;10.902;2024-02-15T05:36:54;7.82;;;3.42;;
30697;SDS011;17448;47.200;10.902;2024-02-15T05:39:20;7.88;;;4.53;;
30697;SDS011;17448;47.200;10.902;2024-02-15T05:41:48;9.98;;;4.72;;
30697;SDS011;17448;47.200;10.902;2024-02-15T05:44:14;6.88;;;3.67;;
30697;SDS011;17448;47.200;10.902;2024-02-15T05:46:45;5.85;;;3.42;;
30697;SDS011;17448;47.200;10.902;2024-02-15T05:49:12;5.65;;;3.40;;
30697;SDS011;17448;47.200;10.902;2024-02-15T05:51:43;4.95;;;2.00;;
30697;SDS011;17448;47.200;10.902;2024-02-15T05:54:10;4.90;;;2.30;;
30697;SDS011;17448;47.200;10.902;2024-02-15T05:56:36;8.82;;;2.30;;
30697;SDS011;17448;47.200;10.902;2024-02-15T05:59:04;3.30;;;2.45;;
30697;SDS011;17448;47.200;10.902;2024-02-15T06:01:36;5.72;;;2.50;;
30697;SDS011;17448;47.200;10.902;2024-02-15T06:04:04;5.22;;;2.40;;
30697;SDS011;17448;47.200;10.902;2024-02-15T06:06:33;5.72;;;2.17;;
30697;SDS011;17448;47.200;10.902;2024-02-15T06:09:00;4.40;;;2.60;;
30697;SDS011;17448;47.200;10.902;2024-02-15T06:11:28;7.30;;;2.58;;
30697;SDS011;17448;47.200;10.902;2024-02-15T06:13:54;5.80;;;2.58;;
30697;SDS011;17448;47.200;10.902;2024-02-15T06:16:20;3.47;;;2.55;;
30697;SDS011;17448;47.200;10.902;2024-02-15T06:18:47;4.85;;;2.30;;
30697;SDS011;17448;47.200;10.902;2024-02-15T06:21:13;8.02;;;2.70;;
30697;SDS011;17448;47.200;10.902;2024-02-15T06:23:39;4.63;;;3.00;;
30697;SDS011;17448;47.200;10.902;2024-02-15T06:26:05;5.50;;;2.40;;
30697;SDS011;17448;47.200;10.902;2024-02-15T06:28:32;4.25;;;2.53;;
30697;SDS011;17448;47.200;10.902;2024-02-15T06:31:17;5.18;;;2.45;;
30697;SDS011;17448;47.200;10.902;2024-02-15T06:34:01;6.72;;;2.65;;
30697;SDS011;17448;47.200;10.902;2024-02-15T06:36:47;3.65;;;2.28;;
30697;SDS011;17448;47.200;10.902;2024-02-15T06:39:32;7.85;;;4.20;;
30697;SDS011;17448;47.200;10.902;2024-02-15T06:42:08;6.85;;;4.45;;
30697;SDS011;17448;47.200;10.902;2024-02-15T06:44:36;10.57;;;5.10;;
30697;SDS011;17448;47.200;10.902;2024-02-15T06:47:06;8.38;;;4.32;;
30697;SDS011;17448;47.200;10.902;2024-02-15T06:49:32;9.43;;;5.00;;
30697;SDS011;17448;47.200;10.902;2024-02-15T06:51:59;7.38;;;3.72;;
30697;SDS011;17448;47.200;10.902;2024-02-15T06:54:27;12.40;;;4.55;;
30697;SDS011;17448;47.200;10.902;2024-02-15T06:56:53;10.05;;;4.00;;
30697;SDS011;17448;47.200;10.902;2024-02-15T06:59:20;12.70;;;5.20;;
30697;SDS011;17448;47.200;10.902;2024-02-15T07:01:48;15.65;;;6.18;;
30697;SDS011;17448;47.200;10.902;2024-02-15T07:04:17;10.93;;;6.18;;
30697;SDS011;17448;47.200;10.902;2024-02-15T07:06:44;16.33;;;6.97;;
30697;SDS011;17448;47.200;10.902;2024-02-15T07:09:13;16.88;;;6.18;;
30697;SDS011;17448;47.200;10.902;2024-02-15T07:11:45;13.70;;;5.38;;
30697;SDS011;17448;47.200;10.902;2024-02-15T07:14:12;18.02;;;7.38;;
30697;SDS011;17448;47.200;10.902;2024-02-15T07:16:39;17.08;;;6.47;;
30697;SDS011;17448;47.200;10.902;2024-02-15T07:19:05;15.65;;;6.18;;
30697;SDS011;17448;47.200;10.902;2024-02-15T07:21:34;15.50;;;5.72;;
30697;SDS011;17448;47.200;10.902;2024-02-15T07:24:01;14.93;;;6.07;;
30697;SDS011;17448;47.200;10.902;2024-02-15T07:26:27;10.70;;;6.13;;
30697;SDS011;17448;47.200;10.902;2024-02-15T07:28:54;19.35;;;6.88;;
30697;SDS011;17448;47.200;10.902;2024-02-15T07:31:21;13.57;;;7.50;;
30697;SDS011;17448;47.200;10.902;2024-02-15T07:33:48;25.58;;;9.75;;
30697;SDS011;17448;47.200;10.902;2024-02-15T07:36:19;17.45;;;8.40;;
30697;SDS011;17448;47.200;10.902;2024-02-15T07:38:49;23.92;;;9.95;;
30697;SDS011;17448;47.200;10.902;2024-02-15T07:41:17;17.40;;;7.93;;
30697;SDS011;17448;47.200;10.902;2024-02-15T07:43:45;17.17;;;8.15;;
30697;SDS011;17448;47.200;10.902;2024-02-15T07:46:15;17.33;;;8.45;;
30697;SDS011;17448;47.200;10.902;2024-02-15T07:48:44;16.92;;;7.90;;
30697;SDS011;17448;47.200;10.902;2024-02-15T07:51:18;15.02;;;8.25;;
30697;SDS011;17448;47.200;10.902;2024-02-15T07:53:45;19.00;;;7.70;;
30697;SDS011;17448;47.200;10.902;2024-02-15T07:56:11;22.27;;;8.02;;
30697;SDS011;17448;47.200;10.902;2024-02-15T07:58:39;19.38;;;8.40;;
30697;SDS011;17448;47.200;10.902;2024-02-15T08:01:12;25.73;;;8.73;;
30697;SDS011;17448;47.200;10.902;2024-02-15T08:03:39;15.75;;;7.65;;
30697;SDS011;17448;47.200;10.902;2024-02-15T08:06:11;11.27;;;6.80;;
30697;SDS011;17448;47.200;10.902;2024-02-15T08:08:41;16.13;;;6.50;;
30697;SDS011;17448;47.200;10.902;2024-02-15T08:11:08;14.70;;;6.43;;
30697;SDS011;17448;47.200;10.902;2024-02-15T08:13:40;15.73;;;5.38;;
30697;SDS011;17448;47.200;10.902;2024-02-15T08:16:07;11.38;;;6.90;;
30697;SDS011;17448;47.200;10.902;2024-02-15T08:18:33;14.20;;;7.53;;
30697;SDS011;17448;47.200;10.902;2024-02-15T08:21:00;11.70;;;6.57;;
30697;SDS011;17448;47.200;10.902;2024-02-15T08:23:27;16.55;;;5.90;;
30697;SDS011;17448;47.200;10.902;2024-02-15T08:25:53;7.57;;;4.82;;
30697;SDS011;17448;47.200;10.902;2024-02-15T08:28:19;12.23;;;5.78;;
30697;SDS011;17448;47.200;10.902;2024-02-15T08:30:46;10.50;;;6.00;;
30697;SDS011;17448;47.200;10.902;2024-02-15T08:33:12;14.90;;;7.40;;
30697;SDS011;17448;47.200;10.902;2024-02-15T08:35:38;13.40;;;7.55;;
30697;SDS011;17448;47.200;10.902;2024-02-15T08:38:06;24.60;;;8.57;;
30697;SDS011;17448;47.200;10.902;2024-02-15T08:40:32;14.07;;;7.40;;
30697;SDS011;17448;47.200;10.902;2024-02-15T08:42:59;9.27;;;5.57;;
30697;SDS011;17448;47.200;10.902;2024-02-15T08:45:25;16.98;;;8.95;;
30697;SDS011;17448;47.200;10.902;2024-02-15T08:47:51;11.80;;;5.25;;
30697;SDS011;17448;47.200;10.902;2024-02-15T08:50:18;11.82;;;5.30;;
30697;SDS011;17448;47.200;10.902;2024-02-15T08:52:46;10.15;;;6.72;;
30697;SDS011;17448;47.200;10.902;2024-02-15T08:55:12;11.15;;;8.32;;
30697;SDS011;17448;47.200;10.902;2024-02-15T08:57:39;11.27;;;8.50;;
30697;SDS011;17448;47.200;10.902;2024-02-15T09:00:06;13.85;;;6.57;;
30697;SDS011;17448;47.200;10.902;2024-02-15T09:02:39;8.93;;;5.20;;
30697;SDS011;17448;47.200;10.902;2024-02-15T09:05:06;5.82;;;3.92;;
30697;SDS011;17448;47.200;10.902;2024-02-15T09:07:32;28.38;;;4.78;;
30697;SDS011;17448;47.200;10.902;2024-02-15T09:09:58;4.40;;;2.65;;
30697;SDS011;17448;47.200;10.902;2024-02-15T09:12:25;4.93;;;2.35;;
30697;SDS011;17448;47.200;10.902;2024-02-15T09:14:51;3.35;;;1.60;;
30697;SDS011;17448;47.200;10.902;2024-02-15T09:17:17;4.07;;;1.50;;
30697;SDS011;17448;47.200;10.902;2024-02-15T09:19:46;19.23;;;5.18;;
30697;SDS011;17448;47.200;10.902;2024-02-15T09:22:14;16.02;;;6.93;;
30697;SDS011;17448;47.200;10.902;2024-02-15T09:24:41;13.30;;;6.07;;
30697;SDS011;17448;47.200;10.902;2024-02-15T09:27:07;18.98;;;4.95;;
30697;SDS011;17448;47.200;10.902;2024-02-15T09:29:37;37.75;;;4.70;;
30697;SDS011;17448;47.200;10.902;2024-02-15T09:32:04;16.90;;;2.50;;
30697;SDS011;17448;47.200;10.902;2024-02-15T09:34:30;7.18;;;1.45;;
30697;SDS011;17448;47.200;10.902;2024-02-15T09:36:58;8.05;;;3.40;;
30697;SDS011;17448;47.200;10.902;2024-02-15T09:39:24;2.53;;;1.60;;
30697;SDS011;17448;47.200;10.902;2024-02-15T09:41:50;11.82;;;3.40;;
30697;SDS011;17448;47.200;10.902;2024-02-15T09:44:23;28.77;;;3.90;;
30697;SDS011;17448;47.200;10.902;2024-02-15T09:47:13;7.50;;;2.10;;
30697;SDS011;17448;47.200;10.902;2024-02-15T09:49:40;8.30;;;1.88;;
30697;SDS011;17448;47.200;10.902;2024-02-15T09:52:07;13.07;;;2.28;;
30697;SDS011;17448;47.200;10.902;2024-02-15T09:54:43;10.82;;;2.00;;
30697;SDS011;17448;47.200;10.902;2024-02-15T09:57:10;15.30;;;2.53;;
30697;SDS011;17448;47.200;10.902;2024-02-15T09:59:39;36.08;;;3.58;;
30697;SDS011;17448;47.200;10.902;2024-02-15T10:02:07;21.48;;;2.78;;
30697;SDS011;17448;47.200;10.902;2024-02-15T10:04:44;15.93;;;2.80;;
30697;SDS011;17448;47.200;10.902;2024-02-15T10:07:13;6.90;;;2.35;;
30697;SDS011;17448;47.200;10.902;2024-02-15T10:09:39;11.20;;;1.38;;
30697;SDS011;17448;47.200;10.902;2024-02-15T10:12:08;6.20;;;1.52;;
30697;SDS011;17448;47.200;10.902;2024-02-15T10:14:34;2.05;;;1.15;;
30697;SDS011;17448;47.200;10.902;2024-02-15T10:17:07;1.48;;;1.00;;
30697;SDS011;17448;47.200;10.902;2024-02-15T10:19:35;6.53;;;1.60;;
30697;SDS011;17448;47.200;10.902;2024-02-15T10:22:08;8.32;;;1.55;;
30697;SDS011;17448;47.200;10.902;2024-02-15T10:24:34;4.60;;;1.20;;
30697;SDS011;17448;47.200;10.902;2024-02-15T10:27:02;3.33;;;0.93;;
30697;SDS011;17448;47.200;10.902;2024-02-15T10:29:36;2.25;;;1.23;;
30697;SDS011;17448;47.200;10.902;2024-02-15T10:32:03;2.03;;;1.15;;
30697;SDS011;17448;47.200;10.902;2024-02-15T10:34:35;3.55;;;1.42;;
30697;SDS011;17448;47.200;10.902;2024-02-15T10:37:13;10.27;;;1.70;;
30697;SDS011;17448;47.200;10.902;2024-02-15T10:39:41;50.65;;;7.28;;
30697;SDS011;17448;47.200;10.902;2024-02-15T10:42:08;5.53;;;1.30;;
30697;SDS011;17448;47.200;10.902;2024-02-15T10:44:38;11.90;;;2.42;;
30697;SDS011;17448;47.200;10.902;2024-02-15T10:47:05;3.22;;;1.30;;
30697;SDS011;17448;47.200;10.902;2024-02-15T10:49:33;1.30;;;0.95;;
30697;SDS011;17448;47.200;10.902;2024-02-15T10:52:01;2.17;;;1.00;;
30697;SDS011;17448;47.200;10.902;2024-02-15T10:57:12;9.38;;;1.60;;
30697;SDS011;17448;47.200;10.902;2024-02-15T10:59:43;0.80;;;0.75;;
30697;SDS011;17448;47.200;10.902;2024-02-15T11:02:28;2.13;;;0.98;;
30697;SDS011;17448;47.200;10.902;2024-02-15T11:04:55;3.85;;;1.10;;
30697;SDS011;17448;47.200;10.902;2024-02-15T11:07:25;6.10;;;0.93;;
30697;SDS011;17448;47.200;10.902;2024-02-15T11:09:53;1.92;;;1.33;;
30697;SDS011;17448;47.200;10.902;2024-02-15T11:12:21;2.17;;;1.15;;
30697;SDS011;17448;47.200;10.902;2024-02-15T11:14:48;2.63;;;1.30;;
30697;SDS011;17448;47.200;10.902;2024-02-15T11:20:02;1.98;;;1.25;;
30697;SDS011;17448;47.200;10.902;2024-02-15T11:22:35;3.30;;;1.33;;
30697;SDS011;17448;47.200;10.902;2024-02-15T11:25:02;1.55;;;1.00;;
30697;SDS011;17448;47.200;10.902;2024-02-15T11:27:35;2.65;;;1.40;;
30697;SDS011;17448;47.200;10.902;2024-02-15T11:30:07;3.30;;;1.65;;
30697;SDS011;17448;47.200;10.902;2024-02-15T11:32:46;4.10;;;2.15;;
30697;SDS011;17448;47.200;10.902;2024-02-15T11:35:14;3.50;;;2.05;;
30697;SDS011;17448;47.200;10.902;2024-02-15T11:40:23;11.80;;;2.42;;
30697;SDS011;17448;47.200;10.902;2024-02-15T11:43:01;4.25;;;1.77;;
30697;SDS011;17448;47.200;10.902;2024-02-15T11:45:29;2.25;;;1.70;;
30697;SDS011;17448;47.200;10.902;2024-02-15T11:47:58;7.32;;;1.95;;
30697;SDS011;17448;47.200;10.902;2024-02-15T11:50:27;3.85;;;1.67;;
30697;SDS011;17448;47.200;10.902;2024-02-15T11:53:00;8.32;;;2.05;;
30697;SDS011;17448;47.200;10.902;2024-02-15T11:55:31;2.88;;;1.67;;
30697;SDS011;17448;47.200;10.902;2024-02-15T11:58:01;1.52;;;1.00;;
30697;SDS011;17448;47.200;10.902;2024-02-15T12:00:30;1.10;;;0.97;;
30697;SDS011;17448;47.200;10.902;2024-02-15T12:03:15;2.00;;;1.30;;
30697;SDS011;17448;47.200;10.902;2024-02-15T12:06:01;5.57;;;1.30;;
30697;SDS011;17448;47.200;10.902;2024-02-15T12:08:46;2.03;;;1.35;;
30697;SDS011;17448;47.200;10.902;2024-02-15T12:11:31;3.72;;;1.63;;
30697;SDS011;17448;47.200;10.902;2024-02-15T12:14:16;2.85;;;1.30;;
30697;SDS011;17448;47.200;10.902;2024-02-15T12:19:48;1.25;;;1.10;;
30697;SDS011;17448;47.200;10.902;2024-02-15T12:22:16;4.82;;;1.33;;
30697;SDS011;17448;47.200;10.902;2024-02-15T12:24:42;1.05;;;0.95;;
30697;SDS011;17448;47.200;10.902;2024-02-15T12:27:09;3.67;;;1.38;;
30697;SDS011;17448;47.200;10.902;2024-02-15T12:29:35;3.03;;;1.10;;
30697;SDS011;17448;47.200;10.902;2024-02-15T12:32:01;2.40;;;1.40;;
30697;SDS011;17448;47.200;10.902;2024-02-15T12:34:29;2.42;;;1.10;;
30697;SDS011;17448;47.200;10.902;2024-02-15T12:37:04;3.72;;;1.20;;
30697;SDS011;17448;47.200;10.902;2024-02-15T12:39:32;1.15;;;0.90;;
30697;SDS011;17448;47.200;10.902;2024-02-15T12:41:59;1.65;;;1.00;;
30697;SDS011;17448;47.200;10.902;2024-02-15T12:44:25;5.05;;;1.33;;
30697;SDS011;17448;47.200;10.902;2024-02-15T12:46:55;2.58;;;1.25;;
30697;SDS011;17448;47.200;10.902;2024-02-15T12:51:52;1.75;;;1.58;;
30697;SDS011;17448;47.200;10.902;2024-02-15T12:54:19;5.90;;;1.15;;
30697;SDS011;17448;47.200;10.902;2024-02-15T12:56:49;5.13;;;1.10;;
30697;SDS011;17448;47.200;10.902;2024-02-15T12:59:18;1.98;;;1.10;;
30697;SDS011;17448;47.200;10.902;2024-02-15T13:01:46;7.18;;;1.38;;
30697;SDS011;17448;47.200;10.902;2024-02-15T13:04:24;2.80;;;1.20;;
30697;SDS011;17448;47.200;10.902;2024-02-15T13:06:50;1.52;;;1.20;;
30697;SDS011;17448;47.200;10.902;2024-02-15T13:09:17;3.63;;;1.27;;
30697;SDS011;17448;47.200;10.902;2024-02-15T13:11:44;4.25;;;1.65;;
30697;SDS011;17448;47.200;10.902;2024-02-15T13:14:12;16.42;;;1.80;;
30697;SDS011;17448;47.200;10.902;2024-02-15T13:16:38;3.15;;;1.10;;
30697;SDS011;17448;47.200;10.902;2024-02-15T13:19:04;3.08;;;1.23;;
30697;SDS011;17448;47.200;10.902;2024-02-15T13:21:32;4.78;;;1.33;;
30697;SDS011;17448;47.200;10.902;2024-02-15T13:24:00;15.45;;;1.95;;
30697;SDS011;17448;47.200;10.902;2024-02-15T13:26:32;15.98;;;2.40;;
30697;SDS011;17448;47.200;10.902;2024-02-15T13:28:59;10.07;;;2.35;;
30697;SDS011;17448;47.200;10.902;2024-02-15T13:31:25;24.23;;;2.97;;
30697;SDS011;17448;47.200;10.902;2024-02-15T13:33:52;12.73;;;2.20;;
30697;SDS011;17448;47.200;10.902;2024-02-15T13:36:19;7.32;;;1.20;;
30697;SDS011;17448;47.200;10.902;2024-02-15T13:38:45;16.17;;;2.88;;
30697;SDS011;17448;47.200;10.902;2024-02-15T13:41:12;7.45;;;1.65;;
30697;SDS011;17448;47.200;10.902;2024-02-15T13:43:41;9.60;;;1.77;;
30697;SDS011;17448;47.200;10.902;2024-02-15T13:46:07;35.50;;;3.25;;
30697;SDS011;17448;47.200;10.902;2024-02-15T13:48:38;24.25;;;2.53;;
30697;SDS011;17448;47.200;10.902;2024-02-15T13:51:04;23.67;;;3.40;;
30697;SDS011;17448;47.200;10.902;2024-02-15T13:53:34;10.20;;;1.90;;
30697;SDS011;17448;47.200;10.902;2024-02-15T13:56:00;8.23;;;1.77;;
30697;SDS011;17448;47.200;10.902;2024-02-15T13:58:26;8.02;;;1.40;;
30697;SDS011;17448;47.200;10.902;2024-02-15T14:00:53;10.27;;;1.52;;
30697;SDS011;17448;47.200;10.902;2024-02-15T14:03:21;27.75;;;2.97;;
30697;SDS011;17448;47.200;10.902;2024-02-15T14:05:48;14.23;;;2.50;;
30697;SDS011;17448;47.200;10.902;2024-02-15T14:08:14;5.53;;;1.60;;
30697;SDS011;17448;47.200;10.902;2024-02-15T14:10:41;6.18;;;1.13;;
30697;SDS011;17448;47.200;10.902;2024-02-15T14:13:07;4.32;;;1.33;;
30697;SDS011;17448;47.200;10.902;2024-02-15T14:15:34;15.93;;;3.72;;
30697;SDS011;17448;47.200;10.902;2024-02-15T14:20:30;9.57;;;2.15;;
30697;SDS011;17448;47.200;10.902;2024-02-15T14:22:56;16.83;;;2.00;;
30697;SDS011;17448;47.200;10.902;2024-02-15T14:25:23;19.70;;;6.80;;
30697;SDS011;17448;47.200;10.902;2024-02-15T14:27:50;51.45;;;8.35;;
30697;SDS011;17448;47.200;10.902;2024-02-15T14:30:18;18.10;;;4.00;;
30697;SDS011;17448;47.200;10.902;2024-02-15T14:33:03;17.60;;;3.45;;
30697;SDS011;17448;47.200;10.902;2024-02-15T14:35:33;13.55;;;3.85;;
30697;SDS011;17448;47.200;10.902;2024-02-15T14:38:00;17.75;;;4.00;;
30697;SDS011;17448;47.200;10.902;2024-02-15T14:40:30;20.85;;;4.82;;
30697;SDS011;17448;47.200;10.902;2024-02-15T14:42:57;25.77;;;5.90;;
30697;SDS011;17448;47.200;10.902;2024-02-15T14:45:24;24.13;;;4.68;;
30697;SDS011;17448;47.200;10.902;2024-02-15T14:47:51;25.60;;;4.78;;
30697;SDS011;17448;47.200;10.902;2024-02-15T14:50:18;29.42;;;5.35;;
30697;SDS011;17448;47.200;10.902;2024-02-15T14:52:46;21.30;;;7.85;;